logo
Search for airport 
image banner adimage banner adimage banner ad
image banner ad

LODM - Murzzuschlag Lkh

Located in District Bruck-Murzzuschlag, Austria

ICAO - , IATA -

Data provided by Airmate  

General information

Coordinates: N47°36'0" E15°40'3"
Elevation is 2211 feet MSL.
 
View others Airports in Styria

Operational data

Special qualification required
Current time UTC:
Current local time:
Weather at : LOXN - Wr. Neustadt/West ( 49 km )
TAF: TAF LOXN 241115Z 2412/2421 32014KT 9999 FEW030 SCT040 TEMPO 2412/2416 33020G30KT TEMPO 2415/2418 SHRA FEW030CB BECMG 2418/2420 VRB03KT FEW040 BKN080
View NOTAMs / SUP AIP / TFR affecting this airport [VIEW]
Communications frequencies: [VIEW]

Runways:

Airport contact information

Address: District Bruck-Murzzuschlag Austria

Satellite view of LODM